Time;durP1;ratioP1;P1;durP2;ratioP2;P2;SDS_P1;SDS_P2;PMS_P1;PMS_P2;Temp;Humidity;BMP_temperature;BMP_pressure;BME280_temperature;BME280_humidity;BME280_pressure;Samples;Min_cycle;Max_cycle;Signal;HPM_P1;HPM_P2
2022/07/12 00:01:39;;;;;;;;;;;18.70;84.70;;;;;;5035058;28;19932;-76
2022/07/12 00:04:05;;;;;;;;;;;18.60;84.80;;;;;;5035530;28;19924;-75
2022/07/12 00:06:32;;;;;;;;;;;18.70;84.80;;;;;;5019243;28;19929;-75
2022/07/12 00:09:00;;;;;;;;;;;18.60;84.60;;;;;;5037571;28;19961;-75
2022/07/12 00:11:27;;;;;;;;;;;18.60;84.70;;;;;;5037368;28;19998;-75
2022/07/12 00:13:54;;;;;;;;;;;18.60;84.70;;;;;;5031369;28;19974;-76
2022/07/12 00:16:21;;;;;;;;;;;18.50;84.70;;;;;;5033883;28;19932;-75
2022/07/12 00:18:48;;;;;;;;;;;18.50;84.60;;;;;;5039029;28;20016;-75
2022/07/12 00:21:15;;;;;;;;;;;18.50;84.60;;;;;;5031125;28;19932;-75
2022/07/12 00:23:42;;;;;;;;;;;18.50;84.70;;;;;;5035895;28;19936;-77
2022/07/12 00:26:10;;;;;;;;;;;18.50;84.60;;;;;;5033572;28;20383;-75
2022/07/12 00:28:37;;;;;;;;;;;18.40;84.60;;;;;;5032436;28;20207;-76
2022/07/12 00:31:04;;;;;;;;;;;18.40;84.60;;;;;;5031900;28;19983;-75
2022/07/12 00:33:31;;;;;;;;;;;18.40;84.60;;;;;;5035556;28;20467;-75
2022/07/12 00:35:58;;;;;;;;;;;18.40;84.70;;;;;;5035798;28;19982;-76
2022/07/12 00:38:24;;;;;;;;;;;18.40;84.50;;;;;;5026307;28;19929;-76
2022/07/12 00:40:51;;;;;;;;;;;18.30;84.40;;;;;;5022313;28;20042;-76
2022/07/12 00:43:19;;;;;;;;;;;18.30;84.50;;;;;;5034145;28;19932;-74
2022/07/12 00:45:46;;;;;;;;;;;18.30;84.50;;;;;;5021283;28;19952;-76
2022/07/12 00:48:13;;;;;;;;;;;18.20;84.50;;;;;;5032706;28;19924;-76
2022/07/12 01:01:08;;;;;;;;;;;18.10;84.20;;;;;;5009438;28;19923;-76
2022/07/12 01:03:35;;;;;;;;;;;18.10;84.30;;;;;;5025770;28;20360;-75
2022/07/12 01:06:02;;;;;;;;;;;18.10;84.20;;;;;;5025967;28;20319;-75
2022/07/12 01:08:31;;;;;;;;;;;18.00;84.20;;;;;;5030763;28;20024;-76
2022/07/12 01:10:59;;;;;;;;;;;18.00;84.20;;;;;;5030619;28;19933;-75
2022/07/12 01:13:26;;;;;;;;;;;18.00;84.30;;;;;;5036400;28;20023;-76
2022/07/12 01:15:53;;;;;;;;;;;18.00;84.40;;;;;;5036688;28;19924;-75
2022/07/12 01:18:22;;;;;;;;;;;17.90;84.20;;;;;;5017894;28;19960;-75
2022/07/12 01:20:49;;;;;;;;;;;17.90;84.30;;;;;;5030547;28;20011;-76
2022/07/12 01:23:17;;;;;;;;;;;17.90;84.30;;;;;;5037976;28;19925;-76
2022/07/12 01:25:44;;;;;;;;;;;17.90;84.40;;;;;;5029950;28;19979;-75
2022/07/12 01:28:11;;;;;;;;;;;17.90;84.20;;;;;;5025596;28;19980;-75
2022/07/12 01:30:38;;;;;;;;;;;17.80;84.20;;;;;;5025288;28;19936;-74
2022/07/12 01:33:06;;;;;;;;;;;17.80;84.10;;;;;;5041895;28;19924;-75
2022/07/12 01:35:33;;;;;;;;;;;17.80;84.20;;;;;;5009202;28;20391;-75
2022/07/12 01:37:59;;;;;;;;;;;17.80;84.20;;;;;;5031983;28;20035;-75
2022/07/12 01:40:28;;;;;;;;;;;17.70;84.00;;;;;;5040225;28;20020;-77
2022/07/12 01:42:55;;;;;;;;;;;17.70;84.10;;;;;;5036096;28;19959;-76
2022/07/12 01:45:22;;;;;;;;;;;17.70;84.20;;;;;;5037824;28;20012;-76
2022/07/12 01:47:50;;;;;;;;;;;17.60;84.10;;;;;;5035658;28;20300;-75
2022/07/12 01:50:17;;;;;;;;;;;17.70;84.20;;;;;;5037210;28;19929;-76
2022/07/12 01:52:45;;;;;;;;;;;17.60;84.10;;;;;;5033783;28;20072;-75
2022/07/12 01:55:12;;;;;;;;;;;17.60;84.10;;;;;;5036051;28;20415;-75
2022/07/12 01:57:41;;;;;;;;;;;17.60;84.10;;;;;;5023841;28;19974;-75
2022/07/12 02:00:10;;;;;;;;;;;17.50;84.10;;;;;;5032602;28;20124;-75
2022/07/12 02:02:37;;;;;;;;;;;17.50;84.10;;;;;;5033075;28;19933;-76
2022/07/12 02:05:05;;;;;;;;;;;17.50;84.10;;;;;;5024527;28;20172;-75
2022/07/12 02:07:32;;;;;;;;;;;17.40;84.00;;;;;;5034735;28;19990;-75
2022/07/12 02:09:58;;;;;;;;;;;17.50;84.20;;;;;;5018274;28;19935;-75
2022/07/12 02:12:26;;;;;;;;;;;17.40;84.10;;;;;;5036175;28;19931;-75
2022/07/12 02:14:54;;;;;;;;;;;17.40;83.90;;;;;;5025487;28;19931;-74
2022/07/12 02:17:21;;;;;;;;;;;17.40;83.90;;;;;;5036264;28;20440;-75
2022/07/12 02:19:47;;;;;;;;;;;17.40;84.10;;;;;;5038890;28;19943;-75
2022/07/12 02:22:14;;;;;;;;;;;17.30;83.90;;;;;;5022346;28;19933;-75
2022/07/12 02:24:41;;;;;;;;;;;17.30;84.00;;;;;;5032652;28;19971;-75
2022/07/12 02:27:08;;;;;;;;;;;17.30;83.90;;;;;;5035018;28;19931;-77
2022/07/12 02:29:36;;;;;;;;;;;17.30;84.00;;;;;;5040231;28;20028;-74
2022/07/12 02:32:05;;;;;;;;;;;17.30;84.10;;;;;;5020564;28;19990;-75
2022/07/12 02:34:32;;;;;;;;;;;17.30;84.80;;;;;;5036291;28;19931;-75
2022/07/12 02:36:58;;;;;;;;;;;17.20;84.70;;;;;;5030513;28;19939;-75
2022/07/12 02:39:26;;;;;;;;;;;17.20;84.10;;;;;;5027280;28;19928;-76
2022/07/12 02:41:53;;;;;;;;;;;17.20;84.00;;;;;;5018841;28;19944;-75
2022/07/12 02:44:19;;;;;;;;;;;17.20;84.80;;;;;;5034282;28;19975;-75
2022/07/12 02:46:47;;;;;;;;;;;17.20;84.10;;;;;;5039139;28;20001;-75
2022/07/12 02:49:15;;;;;;;;;;;17.10;84.00;;;;;;5034987;28;19925;-74
2022/07/12 02:51:42;;;;;;;;;;;17.10;84.00;;;;;;5033559;28;20338;-75
2022/07/12 02:54:09;;;;;;;;;;;17.10;84.00;;;;;;5036194;28;19944;-75
2022/07/12 02:56:35;;;;;;;;;;;17.10;84.00;;;;;;5034282;28;19934;-75
2022/07/12 02:59:02;;;;;;;;;;;17.00;84.00;;;;;;5034440;28;19929;-76
2022/07/12 03:01:29;;;;;;;;;;;17.00;83.90;;;;;;5035730;28;19940;-75
2022/07/12 03:03:57;;;;;;;;;;;17.00;84.00;;;;;;5016289;28;20020;-76
2022/07/12 03:06:25;;;;;;;;;;;17.00;84.00;;;;;;5032274;28;19925;-74
2022/07/12 03:08:52;;;;;;;;;;;17.00;83.90;;;;;;5034407;28;20394;-74
2022/07/12 03:11:19;;;;;;;;;;;17.00;84.00;;;;;;5037741;28;20296;-75
2022/07/12 03:13:45;;;;;;;;;;;16.90;83.90;;;;;;5031642;28;20407;-75
2022/07/12 03:16:13;;;;;;;;;;;16.90;84.00;;;;;;5036347;28;20024;-75
2022/07/12 03:18:40;;;;;;;;;;;16.90;84.10;;;;;;5021311;28;19933;-76
2022/07/12 03:21:07;;;;;;;;;;;16.90;84.10;;;;;;5035979;28;20557;-75
2022/07/12 03:23:35;;;;;;;;;;;16.80;84.10;;;;;;5031955;28;19925;-75
2022/07/12 03:26:02;;;;;;;;;;;16.80;84.20;;;;;;5034172;28;20461;-75
2022/07/12 03:28:29;;;;;;;;;;;16.80;84.00;;;;;;5020191;28;19979;-74
2022/07/12 03:30:56;;;;;;;;;;;16.80;84.00;;;;;;5034692;28;19932;-74
2022/07/12 03:33:23;;;;;;;;;;;16.80;84.10;;;;;;5034252;28;19968;-75
2022/07/12 03:35:50;;;;;;;;;;;16.80;84.20;;;;;;5034089;28;20023;-75
2022/07/12 03:38:17;;;;;;;;;;;16.80;84.30;;;;;;5031364;28;19935;-76
2022/07/12 03:40:45;;;;;;;;;;;16.70;84.20;;;;;;5034029;28;19929;-75
2022/07/12 03:43:12;;;;;;;;;;;16.70;84.40;;;;;;5033805;28;20417;-76
2022/07/12 03:45:40;;;;;;;;;;;16.70;84.30;;;;;;5037686;28;19935;-75
2022/07/12 03:48:07;;;;;;;;;;;16.70;84.30;;;;;;5038590;28;20304;-76
2022/07/12 03:50:34;;;;;;;;;;;16.60;84.30;;;;;;5031693;28;19929;-77
2022/07/12 03:53:01;;;;;;;;;;;16.60;84.20;;;;;;5021227;28;20008;-76
2022/07/12 03:55:28;;;;;;;;;;;16.60;84.20;;;;;;5033453;28;19932;-76
2022/07/12 03:57:56;;;;;;;;;;;16.60;84.40;;;;;;5031625;28;19929;-76
2022/07/12 04:00:24;;;;;;;;;;;16.60;84.50;;;;;;5028961;28;20002;-76
2022/07/12 04:02:52;;;;;;;;;;;16.60;84.40;;;;;;5040304;28;20394;-76
2022/07/12 04:05:19;;;;;;;;;;;16.50;84.30;;;;;;5046099;28;20684;-76
2022/07/12 04:07:46;;;;;;;;;;;16.50;84.30;;;;;;5044437;28;19932;-75
2022/07/12 04:10:14;;;;;;;;;;;16.50;84.20;;;;;;5040030;28;19948;-75
2022/07/12 04:12:41;;;;;;;;;;;16.50;84.40;;;;;;5046067;28;19928;-75
2022/07/12 04:15:10;;;;;;;;;;;16.40;83.90;;;;;;5046378;28;19924;-74
2022/07/12 04:17:37;;;;;;;;;;;16.40;83.90;;;;;;5041983;28;20272;-74
2022/07/12 04:20:04;;;;;;;;;;;16.30;83.90;;;;;;5041521;28;19994;-75
2022/07/12 04:22:31;;;;;;;;;;;16.20;83.80;;;;;;5043852;28;20311;-74
2022/07/12 04:24:58;;;;;;;;;;;16.20;83.80;;;;;;5041832;28;21220;-76
2022/07/12 04:27:26;;;;;;;;;;;16.20;84.00;;;;;;5020954;28;19933;-75
2022/07/12 04:29:53;;;;;;;;;;;16.10;84.10;;;;;;5041566;28;20023;-75
2022/07/12 04:32:21;;;;;;;;;;;16.10;84.50;;;;;;5036964;28;19934;-75
2022/07/12 04:34:48;;;;;;;;;;;16.00;84.20;;;;;;5042640;28;19924;-75
2022/07/12 04:37:15;;;;;;;;;;;16.00;84.50;;;;;;5023111;28;19929;-75
2022/07/12 04:39:42;;;;;;;;;;;16.00;84.60;;;;;;5026531;28;19929;-75
2022/07/12 04:42:09;;;;;;;;;;;16.00;84.80;;;;;;5027095;28;19929;-75
2022/07/12 04:44:36;;;;;;;;;;;15.90;84.70;;;;;;5038805;28;19928;-76
2022/07/12 04:47:03;;;;;;;;;;;15.90;84.90;;;;;;5041721;28;19943;-75
2022/07/12 04:49:33;;;;;;;;;;;15.90;85.30;;;;;;5040241;28;19932;-75
2022/07/12 04:52:00;;;;;;;;;;;15.90;86.00;;;;;;5024723;28;19928;-74
2022/07/12 04:54:27;;;;;;;;;;;15.80;86.20;;;;;;5040813;28;20349;-76
2022/07/12 04:56:54;;;;;;;;;;;15.80;86.30;;;;;;5042344;28;19928;-76
2022/07/12 04:59:22;;;;;;;;;;;15.80;86.70;;;;;;5038339;28;19940;-76
2022/07/12 05:01:51;;;;;;;;;;;15.80;87.20;;;;;;5049446;28;19979;-79
2022/07/12 05:04:18;;;;;;;;;;;15.80;87.20;;;;;;5042133;28;19982;-77
2022/07/12 05:06:47;;;;;;;;;;;15.80;87.50;;;;;;5041945;28;19928;-75
2022/07/12 05:09:13;;;;;;;;;;;15.80;87.50;;;;;;5038308;28;19925;-77
2022/07/12 05:11:40;;;;;;;;;;;15.80;87.70;;;;;;5041819;28;20031;-75
2022/07/12 05:14:07;;;;;;;;;;;15.80;88.40;;;;;;5040976;28;19939;-76
2022/07/12 05:16:34;;;;;;;;;;;15.80;89.30;;;;;;5053947;28;19933;-77
2022/07/12 05:19:02;;;;;;;;;;;15.80;89.70;;;;;;5048532;28;19932;-77
2022/07/12 05:21:29;;;;;;;;;;;15.90;90.10;;;;;;5042826;28;19936;-75
2022/07/12 05:23:57;;;;;;;;;;;15.90;90.30;;;;;;5045068;28;19935;-75
2022/07/12 05:26:24;;;;;;;;;;;16.00;90.40;;;;;;5042169;28;19932;-76
2022/07/12 05:28:51;;;;;;;;;;;16.00;90.60;;;;;;5052976;28;20350;-75
2022/07/12 05:31:18;;;;;;;;;;;16.10;90.50;;;;;;5049933;28;19931;-75
2022/07/12 05:33:45;;;;;;;;;;;16.10;90.30;;;;;;5036718;28;19925;-75
2022/07/12 05:36:12;;;;;;;;;;;16.20;90.20;;;;;;5031497;28;19924;-75
2022/07/12 05:38:39;;;;;;;;;;;16.20;90.10;;;;;;5059386;28;19925;-75
2022/07/12 05:41:07;;;;;;;;;;;16.20;90.00;;;;;;5047099;28;19925;-75
2022/07/12 05:43:34;;;;;;;;;;;16.20;90.00;;;;;;5061407;28;19940;-75
2022/07/12 05:46:01;;;;;;;;;;;16.20;90.00;;;;;;5050829;28;19932;-75
2022/07/12 05:48:28;;;;;;;;;;;16.20;90.00;;;;;;5040482;28;19928;-76
2022/07/12 05:53:21;;;;;;;;;;;16.20;90.00;;;;;;5045272;28;20330;-75
2022/07/12 05:53:41;;;;;;;;;;;16.20;90.10;;;;;;5038092;28;19933;-75
2022/07/12 05:56:09;;;;;;;;;;;16.30;90.10;;;;;;5040653;28;19921;-75
2022/07/12 05:58:36;;;;;;;;;;;16.40;90.40;;;;;;5048117;28;19925;-77
2022/07/12 06:01:03;;;;;;;;;;;16.40;90.10;;;;;;5045215;28;19986;-75
2022/07/12 06:03:30;;;;;;;;;;;16.40;90.10;;;;;;5050622;28;19947;-75
2022/07/12 06:05:57;;;;;;;;;;;16.40;90.10;;;;;;5043276;28;19925;-76
2022/07/12 06:08:24;;;;;;;;;;;16.40;90.10;;;;;;5049754;28;20016;-75
2022/07/12 06:10:51;;;;;;;;;;;16.50;90.10;;;;;;5028819;28;19929;-73
2022/07/12 06:13:19;;;;;;;;;;;16.50;90.10;;;;;;5047267;28;19932;-74
2022/07/12 06:15:47;;;;;;;;;;;16.50;90.20;;;;;;5045061;28;20041;-74
2022/07/12 06:18:14;;;;;;;;;;;16.60;90.30;;;;;;5046617;28;19933;-74
2022/07/12 06:20:40;;;;;;;;;;;16.60;90.30;;;;;;5033398;28;20401;-73
2022/07/12 06:23:07;;;;;;;;;;;16.60;90.40;;;;;;5023105;28;19929;-74
2022/07/12 06:25:34;;;;;;;;;;;16.60;90.40;;;;;;5046625;28;20272;-74
2022/07/12 06:28:01;;;;;;;;;;;16.60;90.30;;;;;;5050914;28;20051;-73
2022/07/12 06:30:30;;;;;;;;;;;16.70;90.40;;;;;;5032526;28;20367;-74
2022/07/12 06:32:57;;;;;;;;;;;16.70;90.60;;;;;;5044540;28;19933;-73
2022/07/12 06:35:24;;;;;;;;;;;16.70;90.60;;;;;;5047661;28;19929;-73
2022/07/12 06:37:51;;;;;;;;;;;16.70;90.60;;;;;;5049572;28;19978;-74
2022/07/12 06:40:18;;;;;;;;;;;16.70;90.70;;;;;;5041688;28;19978;-73
2022/07/12 06:42:45;;;;;;;;;;;16.70;90.60;;;;;;5032176;28;19933;-74
2022/07/12 06:45:12;;;;;;;;;;;16.80;90.70;;;;;;5043144;28;19964;-73
2022/07/12 06:47:40;;;;;;;;;;;16.80;90.60;;;;;;5046355;28;20340;-74
2022/07/12 06:50:08;;;;;;;;;;;16.80;90.80;;;;;;5044558;28;19937;-73
2022/07/12 06:52:36;;;;;;;;;;;16.90;90.90;;;;;;5050803;28;20026;-74
2022/07/12 06:55:03;;;;;;;;;;;16.90;91.00;;;;;;5123310;22;19939;-73
2022/07/12 06:57:30;;;;;;;;;;;16.90;91.00;;;;;;5046157;28;19924;-74
2022/07/12 06:59:57;;;;;;;;;;;17.00;91.10;;;;;;5042885;28;19924;-73
2022/07/12 07:02:24;;;;;;;;;;;17.00;91.10;;;;;;5039968;28;19971;-74
2022/07/12 07:04:52;;;;;;;;;;;17.00;91.10;;;;;;5040803;28;19968;-73
2022/07/12 07:07:19;;;;;;;;;;;17.00;91.00;;;;;;5036904;28;20027;-74
2022/07/12 07:09:46;;;;;;;;;;;17.00;91.00;;;;;;5038864;28;20284;-73
2022/07/12 07:12:13;;;;;;;;;;;17.10;91.10;;;;;;5040808;28;19976;-74
2022/07/12 07:14:40;;;;;;;;;;;17.10;91.00;;;;;;5037723;28;19929;-73
2022/07/12 07:17:08;;;;;;;;;;;17.10;91.00;;;;;;5037036;28;20403;-73
2022/07/12 07:19:37;;;;;;;;;;;17.10;91.00;;;;;;5039173;28;19933;-74
2022/07/12 07:22:05;;;;;;;;;;;17.20;91.00;;;;;;5039421;28;19929;-74
2022/07/12 07:24:32;;;;;;;;;;;17.20;91.00;;;;;;5037424;28;20311;-74
2022/07/12 07:26:59;;;;;;;;;;;17.20;91.00;;;;;;5027637;28;19929;-74
2022/07/12 07:32:11;;;;;;;;;;;17.30;91.10;;;;;;5041597;28;20378;-76
2022/07/12 07:34:38;;;;;;;;;;;17.30;91.10;;;;;;5035294;28;20395;-76
2022/07/12 07:37:06;;;;;;;;;;;17.30;91.10;;;;;;5037331;28;19932;-76
2022/07/12 07:39:33;;;;;;;;;;;17.40;91.20;;;;;;5035534;28;20494;-76
2022/07/12 07:42:00;;;;;;;;;;;17.40;91.10;;;;;;5035892;28;19978;-75
2022/07/12 07:44:27;;;;;;;;;;;17.40;91.10;;;;;;5034667;28;20415;-75
2022/07/12 07:46:54;;;;;;;;;;;17.40;91.10;;;;;;5038405;28;20319;-75
2022/07/12 07:49:21;;;;;;;;;;;17.40;91.10;;;;;;5015965;28;19929;-77
2022/07/12 07:51:48;;;;;;;;;;;17.40;91.00;;;;;;5036611;28;19925;-75
2022/07/12 07:54:17;;;;;;;;;;;17.40;91.00;;;;;;5040437;28;19925;-76
2022/07/12 07:56:43;;;;;;;;;;;17.50;91.00;;;;;;5025718;28;20421;-76
2022/07/12 07:59:10;;;;;;;;;;;17.50;91.00;;;;;;5040824;28;19929;-75
2022/07/12 08:01:48;;;;;;;;;;;17.50;91.00;;;;;;5035787;28;19924;-75
2022/07/12 08:04:15;;;;;;;;;;;17.50;91.00;;;;;;5041763;28;19929;-76
2022/07/12 08:06:42;;;;;;;;;;;17.50;91.00;;;;;;5041819;28;19978;-75
2022/07/12 08:09:10;;;;;;;;;;;17.50;91.00;;;;;;5039263;28;19925;-75
2022/07/12 08:11:39;;;;;;;;;;;17.50;91.00;;;;;;5039395;28;20008;-75
2022/07/12 08:14:06;;;;;;;;;;;17.60;91.00;;;;;;5041468;28;19929;-75
2022/07/12 08:16:33;;;;;;;;;;;17.60;91.00;;;;;;5039460;28;22790;-76
2022/07/12 08:19:00;;;;;;;;;;;17.60;91.00;;;;;;5038330;28;19933;-76
2022/07/12 08:21:30;;;;;;;;;;;17.60;91.00;;;;;;5032729;28;19933;-77
2022/07/12 08:23:57;;;;;;;;;;;17.60;91.00;;;;;;5037937;28;20006;-76
2022/07/12 08:26:24;;;;;;;;;;;17.60;91.00;;;;;;5022749;28;20027;-75
2022/07/12 08:28:56;;;;;;;;;;;17.70;91.00;;;;;;5037021;28;19928;-76
2022/07/12 08:31:23;;;;;;;;;;;17.70;91.10;;;;;;5041691;28;20299;-76
2022/07/12 08:33:50;;;;;;;;;;;17.70;91.10;;;;;;5034687;28;20365;-75
2022/07/12 08:36:17;;;;;;;;;;;17.70;91.10;;;;;;5040687;28;19932;-76
2022/07/12 08:38:44;;;;;;;;;;;17.70;91.10;;;;;;5036338;28;19980;-76
2022/07/12 08:41:12;;;;;;;;;;;17.70;91.10;;;;;;5037996;28;20417;-75
2022/07/12 08:43:39;;;;;;;;;;;17.80;91.20;;;;;;5039259;28;19932;-76
2022/07/12 08:46:09;;;;;;;;;;;17.80;91.10;;;;;;5036178;28;19933;-75
2022/07/12 08:48:37;;;;;;;;;;;17.80;91.10;;;;;;5039188;28;20709;-75
2022/07/12 08:51:07;;;;;;;;;;;17.80;91.10;;;;;;5034408;28;19933;-76
2022/07/12 08:53:34;;;;;;;;;;;17.80;91.00;;;;;;5037617;28;19986;-76
2022/07/12 08:56:01;;;;;;;;;;;17.80;91.10;;;;;;5035387;28;20502;-75
2022/07/12 08:58:28;;;;;;;;;;;17.80;91.10;;;;;;5039919;28;19925;-75
2022/07/12 09:00:55;;;;;;;;;;;17.80;91.10;;;;;;5035609;28;19970;-75
2022/07/12 09:03:24;;;;;;;;;;;17.90;91.10;;;;;;5021417;28;20349;-76
2022/07/12 09:05:52;;;;;;;;;;;17.90;91.10;;;;;;5023752;28;19925;-76
2022/07/12 09:08:19;;;;;;;;;;;17.90;91.10;;;;;;5039849;28;19929;-75
2022/07/12 09:10:53;;;;;;;;;;;17.90;91.00;;;;;;5036557;28;19929;-75
2022/07/12 09:13:20;;;;;;;;;;;17.90;91.00;;;;;;5034248;28;19925;-75
2022/07/12 09:15:47;;;;;;;;;;;17.90;91.00;;;;;;5031927;28;19932;-75
2022/07/12 09:18:15;;;;;;;;;;;17.90;91.00;;;;;;5039083;28;20024;-75
2022/07/12 09:20:50;;;;;;;;;;;18.00;90.70;;;;;;5036495;28;19931;-77
2022/07/12 09:23:18;;;;;;;;;;;18.00;90.80;;;;;;5044149;28;20316;-76
2022/07/12 09:25:45;;;;;;;;;;;18.00;90.90;;;;;;5036994;28;19936;-75
2022/07/12 09:28:12;;;;;;;;;;;18.00;90.90;;;;;;5038880;28;19925;-76
2022/07/12 09:30:48;;;;;;;;;;;18.10;90.90;;;;;;5037032;28;19968;-75
2022/07/12 09:36:08;;;;;;;;;;;18.10;90.80;;;;;;5039951;28;20016;-75
2022/07/12 09:38:35;;;;;;;;;;;18.10;90.80;;;;;;5030823;28;19956;-75
2022/07/12 09:41:02;;;;;;;;;;;18.10;90.80;;;;;;5014119;28;19925;-76
2022/07/12 09:43:29;;;;;;;;;;;18.20;90.80;;;;;;5035074;28;19936;-75
2022/07/12 09:45:57;;;;;;;;;;;18.20;90.70;;;;;;5037318;28;20680;-75
2022/07/12 09:48:24;;;;;;;;;;;18.20;90.70;;;;;;5012845;28;20038;-75
2022/07/12 09:50:51;;;;;;;;;;;18.20;90.50;;;;;;5039020;28;20298;-76
2022/07/12 09:53:22;;;;;;;;;;;18.20;90.50;;;;;;5036109;28;19925;-76
2022/07/12 09:55:50;;;;;;;;;;;18.20;90.50;;;;;;5035916;28;19925;-76
2022/07/12 09:58:22;;;;;;;;;;;18.30;90.50;;;;;;5035812;28;19976;-76
2022/07/12 10:00:51;;;;;;;;;;;18.30;90.50;;;;;;5037071;28;19925;-76
2022/07/12 10:03:21;;;;;;;;;;;18.30;90.50;;;;;;5042378;28;19932;-76
2022/07/12 10:05:49;;;;;;;;;;;18.30;90.50;;;;;;5041709;28;20291;-75
2022/07/12 10:08:16;;;;;;;;;;;18.30;90.50;;;;;;5044563;28;20017;-75
2022/07/12 10:10:45;;;;;;;;;;;18.30;90.40;;;;;;5040268;28;20353;-76
2022/07/12 10:13:13;;;;;;;;;;;18.40;90.50;;;;;;5043188;28;19949;-75
2022/07/12 10:15:43;;;;;;;;;;;18.40;90.40;;;;;;5035762;28;20282;-76
2022/07/12 10:18:15;;;;;;;;;;;18.40;90.40;;;;;;5041455;28;19932;-76
2022/07/12 10:20:43;;;;;;;;;;;18.40;90.70;;;;;;5038022;28;19932;-75
2022/07/12 10:23:30;;;;;;;;;;;18.50;90.30;;;;;;5035672;28;19932;-75
2022/07/12 10:25:59;;;;;;;;;;;18.50;90.30;;;;;;5044408;28;20411;-76
2022/07/12 10:28:55;;;;;;;;;;;18.50;90.10;;;;;;5041606;28;19956;-76
2022/07/12 10:31:24;;;;;;;;;;;18.50;90.20;;;;;;5022422;28;19929;-75
2022/07/12 10:33:59;;;;;;;;;;;18.50;90.30;;;;;;5042572;28;20381;-76
2022/07/12 10:36:26;;;;;;;;;;;18.50;90.30;;;;;;5042072;28;19931;-75
2022/07/12 10:39:12;;;;;;;;;;;18.50;90.10;;;;;;5044508;28;19925;-76
2022/07/12 10:41:42;;;;;;;;;;;18.60;90.10;;;;;;5031961;28;20298;-76
2022/07/12 10:44:09;;;;;;;;;;;18.50;89.80;;;;;;5042939;28;20349;-75
2022/07/12 10:46:37;;;;;;;;;;;18.60;89.80;;;;;;5040656;28;20315;-76
2022/07/12 10:49:23;;;;;;;;;;;18.60;90.00;;;;;;5034743;28;20388;-75
2022/07/12 10:52:04;;;;;;;;;;;18.60;90.00;;;;;;5041896;28;19925;-76
2022/07/12 10:54:31;;;;;;;;;;;18.60;89.90;;;;;;5024550;28;20018;-74
2022/07/12 10:57:00;;;;;;;;;;;18.60;90.00;;;;;;5038042;28;19964;-75
2022/07/12 10:59:27;;;;;;;;;;;18.70;90.00;;;;;;5037636;28;19925;-76
2022/07/12 11:01:55;;;;;;;;;;;18.70;90.00;;;;;;5037911;28;19925;-76
2022/07/12 11:04:22;;;;;;;;;;;18.70;90.00;;;;;;5042045;28;20321;-76
2022/07/12 11:06:49;;;;;;;;;;;18.70;89.80;;;;;;5043295;28;20713;-75
2022/07/12 11:09:17;;;;;;;;;;;18.80;90.00;;;;;;5018420;28;19947;-75
2022/07/12 11:11:45;;;;;;;;;;;18.80;89.70;;;;;;5039273;28;20390;-76
2022/07/12 11:14:21;;;;;;;;;;;18.80;89.90;;;;;;5045210;28;20380;-75
2022/07/12 11:16:48;;;;;;;;;;;18.80;90.00;;;;;;5039112;28;20365;-75
2022/07/12 11:19:16;;;;;;;;;;;18.80;90.00;;;;;;5041198;28;19933;-75
2022/07/12 11:21:44;;;;;;;;;;;18.80;90.00;;;;;;5037489;28;19929;-78
2022/07/12 11:24:20;;;;;;;;;;;18.90;90.00;;;;;;5040349;28;21364;-76
2022/07/12 11:26:47;;;;;;;;;;;18.90;89.80;;;;;;5039208;28;20018;-76
2022/07/12 11:29:16;;;;;;;;;;;19.00;89.60;;;;;;5032961;28;19925;-75
2022/07/12 11:31:43;;;;;;;;;;;19.00;89.50;;;;;;5041180;28;19978;-77
2022/07/12 11:34:19;;;;;;;;;;;19.00;89.30;;;;;;5040706;28;20295;-75
2022/07/12 11:36:47;;;;;;;;;;;19.00;89.30;;;;;;5037894;28;20398;-75
2022/07/12 11:39:14;;;;;;;;;;;19.00;89.20;;;;;;5020381;28;19964;-76
2022/07/12 11:41:41;;;;;;;;;;;19.10;89.40;;;;;;5040248;28;19925;-76
2022/07/12 11:44:07;;;;;;;;;;;19.10;89.30;;;;;;5035604;28;20387;-76
2022/07/12 11:46:36;;;;;;;;;;;19.10;89.20;;;;;;5038840;28;20019;-75
2022/07/12 11:49:03;;;;;;;;;;;19.10;89.30;;;;;;5041512;28;20542;-76
2022/07/12 11:51:33;;;;;;;;;;;19.10;89.30;;;;;;5036936;28;19933;-76
2022/07/12 11:54:00;;;;;;;;;;;19.10;89.50;;;;;;5036029;28;19925;-75
2022/07/12 11:56:31;;;;;;;;;;;19.20;89.60;;;;;;5039800;28;19925;-76
2022/07/12 11:58:58;;;;;;;;;;;19.20;89.40;;;;;;5038144;28;19929;-75
2022/07/12 12:01:25;;;;;;;;;;;19.20;89.30;;;;;;5038887;28;19947;-75
2022/07/12 12:03:56;;;;;;;;;;;19.20;89.00;;;;;;5018955;28;19925;-75
2022/07/12 12:06:23;;;;;;;;;;;19.20;88.90;;;;;;5035060;28;19944;-75
2022/07/12 12:08:52;;;;;;;;;;;19.30;89.00;;;;;;5035128;28;20384;-76
2022/07/12 12:11:27;;;;;;;;;;;19.30;89.00;;;;;;5037756;28;19925;-75
2022/07/12 12:13:57;;;;;;;;;;;19.40;89.20;;;;;;5038190;28;19971;-75
2022/07/12 12:16:24;;;;;;;;;;;19.40;89.50;;;;;;5041899;28;20446;-75
2022/07/12 12:18:50;;;;;;;;;;;19.40;89.30;;;;;;5035513;28;20498;-76
2022/07/12 12:21:26;;;;;;;;;;;19.50;89.10;;;;;;5037976;28;20388;-75
2022/07/12 12:24:08;;;;;;;;;;;19.50;89.40;;;;;;5038376;28;20023;-75
2022/07/12 12:26:35;;;;;;;;;;;19.60;89.80;;;;;;5036845;28;19932;-76
2022/07/12 12:29:03;;;;;;;;;;;19.60;89.80;;;;;;5028678;28;19941;-77
2022/07/12 12:31:30;;;;;;;;;;;19.70;89.90;;;;;;5037693;28;19952;-75
2022/07/12 12:33:58;;;;;;;;;;;19.70;89.80;;;;;;5040918;28;19929;-76
2022/07/12 12:36:27;;;;;;;;;;;19.70;89.80;;;;;;5035929;28;19957;-76
2022/07/12 12:38:55;;;;;;;;;;;19.80;90.00;;;;;;5032550;28;19925;-75
2022/07/12 12:41:23;;;;;;;;;;;19.80;90.00;;;;;;5037912;28;19939;-74
2022/07/12 12:43:57;;;;;;;;;;;19.90;90.00;;;;;;5022317;28;20024;-73
2022/07/12 12:46:43;;;;;;;;;;;19.90;89.90;;;;;;5038048;28;20016;-73
2022/07/12 12:49:10;;;;;;;;;;;20.00;89.50;;;;;;5036870;28;19924;-73
2022/07/12 12:51:52;;;;;;;;;;;20.10;89.50;;;;;;5039711;28;19929;-74
2022/07/12 12:54:32;;;;;;;;;;;20.10;89.60;;;;;;5036547;28;20425;-75
2022/07/12 12:56:59;;;;;;;;;;;20.10;89.80;;;;;;5044005;28;19936;-73
2022/07/12 12:59:27;;;;;;;;;;;20.20;90.00;;;;;;5029070;28;19933;-74
2022/07/12 13:01:54;;;;;;;;;;;20.20;90.00;;;;;;5039234;28;19955;-74
2022/07/12 13:04:21;;;;;;;;;;;20.30;90.00;;;;;;5037264;28;19932;-74
2022/07/12 13:06:48;;;;;;;;;;;20.30;90.00;;;;;;5037689;28;19978;-74
2022/07/12 13:09:15;;;;;;;;;;;20.30;89.90;;;;;;5037965;28;20015;-74
2022/07/12 13:11:43;;;;;;;;;;;20.40;89.80;;;;;;5038067;28;19939;-74
2022/07/12 13:14:10;;;;;;;;;;;20.40;89.80;;;;;;5022073;28;19983;-74
2022/07/12 13:16:38;;;;;;;;;;;20.40;89.60;;;;;;5042996;28;19933;-74
2022/07/12 13:19:05;;;;;;;;;;;20.50;89.70;;;;;;5023507;28;19932;-74
2022/07/12 13:21:32;;;;;;;;;;;20.60;89.90;;;;;;5041101;28;20007;-74
2022/07/12 13:23:59;;;;;;;;;;;20.60;90.00;;;;;;5039009;28;20016;-74
2022/07/12 13:26:26;;;;;;;;;;;20.70;90.00;;;;;;5023507;28;20350;-74
2022/07/12 13:28:55;;;;;;;;;;;20.70;90.00;;;;;;5026612;28;19979;-74
2022/07/12 13:31:22;;;;;;;;;;;20.80;90.10;;;;;;5037903;28;19928;-73
2022/07/12 13:33:49;;;;;;;;;;;;;;;;;;5019085;28;19935;-74
2022/07/12 13:36:16;;;;;;;;;;;20.90;89.70;;;;;;5045329;28;19929;-74
2022/07/12 13:38:43;;;;;;;;;;;20.90;90.10;;;;;;5039154;28;19931;-74
2022/07/12 13:41:10;;;;;;;;;;;20.90;89.40;;;;;;5037968;28;19931;-74
2022/07/12 13:43:37;;;;;;;;;;;21.00;88.70;;;;;;5028047;28;19936;-74
2022/07/12 13:46:05;;;;;;;;;;;21.10;89.10;;;;;;5042437;28;20433;-74
2022/07/12 13:48:33;;;;;;;;;;;21.10;89.50;;;;;;5044316;28;20032;-74
2022/07/12 13:51:00;;;;;;;;;;;21.20;89.50;;;;;;5040617;28;19933;-74
2022/07/12 13:53:27;;;;;;;;;;;21.20;89.00;;;;;;5039749;28;19939;-74
2022/07/12 13:55:54;;;;;;;;;;;21.30;89.10;;;;;;5040565;28;20020;-74
2022/07/12 13:58:21;;;;;;;;;;;21.40;89.50;;;;;;5041120;28;20283;-75
2022/07/12 14:00:48;;;;;;;;;;;21.40;89.10;;;;;;5034890;28;19929;-74
2022/07/12 14:03:16;;;;;;;;;;;21.50;88.60;;;;;;5041532;28;19932;-73
2022/07/12 14:05:43;;;;;;;;;;;21.50;88.30;;;;;;5040754;28;19925;-73
2022/07/12 14:08:10;;;;;;;;;;;21.60;87.80;;;;;;5043009;28;19925;-75
2022/07/12 14:10:37;;;;;;;;;;;21.70;88.30;;;;;;5040251;28;19939;-74
2022/07/12 14:13:04;;;;;;;;;;;21.80;88.20;;;;;;5042785;28;19931;-73
2022/07/12 14:15:37;;;;;;;;;;;21.80;88.40;;;;;;5040918;28;19929;-74
2022/07/12 14:18:05;;;;;;;;;;;21.80;88.10;;;;;;5034628;28;19932;-74
2022/07/12 14:20:34;;;;;;;;;;;21.90;87.40;;;;;;5040612;28;20407;-74
2022/07/12 14:23:01;;;;;;;;;;;22.00;87.80;;;;;;5035685;28;20402;-74
2022/07/12 14:25:28;;;;;;;;;;;22.00;88.40;;;;;;5033768;28;19925;-75
2022/07/12 14:27:55;;;;;;;;;;;22.10;88.70;;;;;;5043331;28;19925;-74
2022/07/12 14:30:22;;;;;;;;;;;22.20;89.10;;;;;;5042396;28;19979;-74
2022/07/12 14:32:49;;;;;;;;;;;22.20;89.20;;;;;;5035447;28;19932;-74
2022/07/12 14:35:16;;;;;;;;;;;22.20;89.30;;;;;;5033198;28;19967;-74
2022/07/12 14:37:44;;;;;;;;;;;22.30;89.50;;;;;;5041757;28;20003;-74
2022/07/12 14:40:12;;;;;;;;;;;22.40;88.90;;;;;;5044066;28;19932;-74